CDT,Max TemperatureF,Mean TemperatureF,Min TemperatureF,Max Dew PointF,MeanDew PointF,Min DewpointF,Max Humidity, Mean Humidity, Min Humidity, Max Sea Level PressureIn, Mean Sea Level PressureIn, Min Sea Level PressureIn, Max VisibilityMiles, Mean VisibilityMiles, Min VisibilityMiles, Max Wind SpeedMPH, Mean Wind SpeedMPH, Max Gust SpeedMPH,PrecipitationIn, CloudCover, Events, WindDirDegrees
2011-10-1,68,52,35,37,34,30,93,59,24,30.34,30.27,30.18,10,10,5,13,7,20,0.00,0,,150
2011-10-2,82,62,42,39,34,28,76,45,14,30.20,30.15,30.09,10,10,10,14,8,22,0.00,0,,174
2011-10-3,82,63,44,41,33,16,76,39,8,30.19,30.15,30.11,10,10,10,16,7,23,0.00,0,,163
2011-10-4,87,68,50,43,37,34,58,34,16,30.15,30.08,30.00,10,10,10,22,11,26,0.00,0,,157
2011-10-5,87,74,62,48,41,32,56,34,14,30.07,30.02,29.98,10,10,7,18,10,29,0.00,0,,162
2011-10-6,84,70,55,45,39,27,63,37,13,30.05,29.99,29.93,10,10,10,25,12,33,0.00,0,,153
2011-10-7,86,77,68,61,54,46,56,47,37,29.93,29.87,29.80,10,10,10,33,21,40,0.00,2,,174
2011-10-8,82,73,64,61,57,54,83,57,39,30.12,30.01,29.89,10,10,10,23,14,31,0.07,2,Rain-Thunderstorm,201
2011-10-9,82,70,59,61,53,45,88,57,28,30.19,30.13,30.08,10,10,10,16,7,23,0.00,1,,146
2011-10-10,69,63,57,61,54,50,94,72,56,30.07,29.99,29.91,10,10,7,15,11,22,0.07,1,Rain,164
2011-10-11,77,64,50,55,50,43,94,69,31,29.90,29.85,29.77,10,10,7,17,10,22,0.00,1,Rain-Thunderstorm,166
2011-10-12,64,60,57,57,55,52,94,82,64,29.76,29.72,29.66,10,9,5,14,8,18,0.10,4,Rain-Thunderstorm,170
2011-10-13,64,55,46,52,45,39,94,76,42,29.73,29.69,29.65,10,9,2,21,10,29,0.01,2,,299
2011-10-14,57,50,44,46,43,39,93,76,54,29.87,29.77,29.69,10,10,10,29,15,39,0.00,4,,299
2011-10-15,62,50,39,45,38,30,87,67,30,29.94,29.88,29.83,10,10,10,20,11,28,0.00,2,Rain,290
2011-10-16,59,49,39,43,35,27,93,63,29,29.94,29.90,29.85,10,10,10,30,11,36,0.00,1,Rain,287
2011-10-17,59,46,33,34,28,21,81,53,25,29.94,29.91,29.87,10,10,10,28,13,38,0.00,0,,289
2011-10-18,50,44,37,34,29,25,81,62,37,30.08,30.00,29.91,10,10,10,20,12,28,0.00,3,,330
2011-10-19,46,39,32,34,29,27,81,67,57,30.12,30.08,30.06,10,10,10,13,9,20,0.00,5,,350
2011-10-20,55,42,30,36,29,27,93,67,35,30.05,29.99,29.95,10,10,10,18,9,24,0.00,0,,330
2011-10-21,69,48,26,37,29,21,86,58,23,30.05,30.00,29.95,10,10,10,15,6,21,0.00,0,,249
2011-10-22,62,47,32,39,34,28,87,61,31,30.14,30.08,29.99,10,10,7,10,6,,0.00,0,,271
2011-10-23,66,55,44,46,42,36,93,68,40,29.95,29.86,29.78,10,10,7,22,8,28,0.00,2,,261
2011-10-24,64,48,32,43,36,30,93,68,30,30.02,29.98,29.93,10,10,10,9,5,,0.00,0,,247
2011-10-25,57,50,44,43,38,34,82,62,47,30.04,29.87,29.77,10,10,10,20,11,28,0.00,2,,44
2011-10-26,50,42,35,41,37,34,93,77,62,30.12,30.07,30.02,10,10,4,9,4,,0.01,5,Rain,348
2011-10-27,51,38,26,37,28,19,100,70,28,30.09,30.06,30.04,10,9,0,12,6,16,0.00,2,Fog,278
2011-10-28,55,44,32,34,23,16,70,49,21,30.07,30.04,30.02,10,10,10,23,9,29,0.00,2,,277
2011-10-29,55,39,23,27,19,14,80,47,20,30.06,29.99,29.88,10,10,10,15,7,21,0.00,1,,186
2011-10-30,48,45,42,39,31,19,81,59,32,29.96,29.85,29.76,10,10,10,21,12,29,0.00,6,,295
2011-10-31,57,40,24,34,28,21,93,64,29,30.03,29.98,29.90,10,10,10,13,7,16,0.00,1,,226